Time;durP1;ratioP1;P1;durP2;ratioP2;P2;SDS_P1;SDS_P2;PMS_P1;PMS_P2;Temp;Humidity;BMP_temperature;BMP_pressure;BME280_temperature;BME280_humidity;BME280_pressure;Samples;Min_cycle;Max_cycle;Signal;HPM_P1;HPM_P2
2022/05/27 00:02:08;;;;;;;3.60;1.23;;;;;;;18.36;nan;101613.31;5036581;28;20447;-83
2022/05/27 00:04:36;;;;;;;12.03;1.30;;;;;;;18.36;nan;101621.63;5051901;28;20501;-84
2022/05/27 00:07:04;;;;;;;4.90;0.93;;;;;;;18.34;nan;101609.94;5049566;28;20454;-83
2022/05/27 00:09:32;;;;;;;5.67;1.17;;;;;;;18.25;nan;101605.75;5022566;28;20462;-84
2022/05/27 00:12:01;;;;;;;9.90;1.20;;;;;;;18.22;nan;101607.03;5065261;28;20453;-83
2022/05/27 00:14:30;;;;;;;8.63;1.47;;;;;;;18.15;nan;101591.53;5033705;28;20458;-84
2022/05/27 00:16:58;;;;;;;1.87;0.80;;;;;;;18.12;nan;101595.59;5032335;28;20499;-84
2022/05/27 00:19:26;;;;;;;3.40;1.23;;;;;;;18.08;nan;101583.31;5047174;28;20952;-83
2022/05/27 00:21:56;;;;;;;55.23;2.50;;;;;;;18.16;nan;101596.00;5055309;28;20463;-83
2022/05/27 00:24:24;;;;;;;19.93;1.97;;;;;;;18.13;nan;101593.69;5056403;28;20454;-84
2022/05/27 00:26:52;;;;;;;8.43;1.47;;;;;;;18.15;nan;101588.78;5035134;28;20443;-84
2022/05/27 00:29:20;;;;;;;7.87;1.40;;;;;;;18.14;nan;101598.16;5036097;28;20454;-84
2022/05/27 00:31:54;;;;;;;14.93;1.70;;;;;;;18.06;nan;101590.97;5034218;28;20972;-83
2022/05/27 00:34:21;;;;;;;19.70;1.83;;;;;;;18.07;nan;101603.75;5053228;28;20450;-83
2022/05/27 00:36:49;;;;;;;4.90;1.40;;;;;;;18.04;nan;101589.50;5035947;28;20485;-84
2022/05/27 00:39:17;;;;;;;8.83;1.53;;;;;;;17.95;nan;101595.28;5051130;28;21004;-85
2022/05/27 00:41:47;;;;;;;6.00;1.03;;;;;;;17.87;nan;101590.03;5051234;28;20952;-84
2022/05/27 00:44:15;;;;;;;6.87;1.43;;;;;;;17.81;nan;101581.75;5051917;28;20454;-83
2022/05/27 00:46:43;;;;;;;2.53;1.10;;;;;;;17.74;nan;101570.72;5034624;28;21003;-83
2022/05/27 00:49:17;;;;;;;5.37;1.00;;;;;;;17.65;nan;101571.22;5046457;28;20509;-84
2022/05/27 00:52:06;;;;;;;9.13;1.53;;;;;;;17.60;nan;101564.41;5047534;28;20455;-84
2022/05/27 00:54:33;;;;;;;6.13;1.03;;;;;;;17.58;nan;101560.16;5073838;28;20504;-84
2022/05/27 00:57:07;;;;;;;2.63;0.77;;;;;;;17.53;nan;101559.94;5051684;28;20513;-83
2022/05/27 00:59:57;;;;;;;7.23;1.00;;;;;;;17.50;nan;101563.19;5051449;28;20465;-84
2022/05/27 01:02:25;;;;;;;12.70;1.73;;;;;;;17.41;nan;101545.97;5035544;28;20508;-84
2022/05/27 01:04:53;;;;;;;4.40;1.60;;;;;;;17.42;nan;101549.59;5034565;28;20469;-84
2022/05/27 01:07:22;;;;;;;6.87;1.80;;;;;;;17.34;nan;101544.31;5033002;28;20442;-84
2022/05/27 01:09:50;;;;;;;5.30;1.50;;;;;;;17.33;nan;101534.31;5040084;28;20447;-83
2022/05/27 01:12:40;;;;;;;5.17;1.47;;;;;;;17.35;nan;101538.56;5035492;28;20484;-84
2022/05/27 01:15:29;;;;;;;4.23;0.87;;;;;;;17.35;nan;101532.19;5037572;28;20448;-84
2022/05/27 01:18:18;;;;;;;5.60;1.17;;;;;;;17.27;nan;101531.38;5083753;28;20547;-83
2022/05/27 01:21:02;;;;;;;9.73;1.50;;;;;;;17.27;nan;101531.38;5047370;28;20601;-83
2022/05/27 01:23:56;;;;;;;4.47;1.10;;;;;;;17.31;nan;101530.94;4999911;28;20458;-84
2022/05/27 01:26:52;;;;;;;5.40;1.37;;;;;;;17.29;nan;101531.16;5055731;28;20816;-83
2022/05/27 01:29:38;;;;;;;4.53;1.00;;;;;;;17.35;nan;101532.19;5041958;28;20454;-83
2022/05/27 01:32:12;;;;;;;5.97;1.33;;;;;;;17.33;nan;101534.31;5054930;28;20458;-84
2022/05/27 01:34:54;;;;;;;5.87;1.40;;;;;;;17.32;nan;101529.88;5055278;28;20511;-84
2022/05/27 01:37:38;;;;;;;7.80;1.07;;;;;;;17.30;nan;101529.25;5073229;28;20987;-84
2022/05/27 01:40:30;;;;;;;3.13;1.40;;;;;;;17.26;nan;101521.41;5056424;28;20469;-84
2022/05/27 01:43:02;;;;;;;8.60;1.60;;;;;;;17.27;nan;101513.97;5035737;28;20867;-84
2022/05/27 01:45:40;;;;;;;3.97;1.00;;;;;;;17.27;nan;101512.03;5043032;28;20512;-84
2022/05/27 01:48:17;;;;;;;3.30;1.17;;;;;;;17.27;nan;101509.28;5039035;28;20518;-84
2022/05/27 01:51:18;;;;;;;9.17;1.20;;;;;;;17.22;nan;101500.78;5027472;28;20451;-83
2022/05/27 01:53:50;;;;;;;2.20;1.43;;;;;;;17.09;nan;101492.56;5068268;28;20496;-83
2022/05/27 01:56:39;;;;;;;3.87;1.30;;;;;;;17.08;nan;101493.63;5086332;28;20476;-84
2022/05/27 01:59:45;;;;;;;3.20;1.37;;;;;;;17.03;nan;101498.09;5056497;28;20450;-84
2022/05/27 02:02:16;;;;;;;5.70;1.07;;;;;;;16.99;nan;101489.41;5056266;28;20483;-83
2022/05/27 02:05:00;;;;;;;8.30;1.23;;;;;;;16.97;nan;101476.88;5054455;28;20461;-84
2022/05/27 02:07:33;;;;;;;3.53;1.40;;;;;;;16.92;nan;101474.78;5053011;28;20944;-84
2022/05/27 02:10:04;;;;;;;8.20;1.07;;;;;;;16.93;nan;101480.06;5026453;28;20451;-84
2022/05/27 02:12:44;;;;;;;33.90;2.20;;;;;;;16.91;nan;101482.22;5034794;28;20449;-84
2022/05/27 02:15:21;;;;;;;3.63;1.60;;;;;;;16.87;nan;101474.59;5018847;28;20531;-83
2022/05/27 02:18:00;;;;;;;4.60;1.20;;;;;;;16.85;nan;101482.22;5050062;28;20483;-83
2022/05/27 02:20:30;;;;;;;3.53;1.00;;;;;;;16.83;nan;101473.31;5028166;28;20494;-84
2022/05/27 02:23:01;;;;;;;6.63;1.30;;;;;;;16.77;nan;101468.66;5028003;28;20539;-83
2022/05/27 02:25:35;;;;;;;10.90;1.30;;;;;;;16.78;nan;101470.34;5038166;28;20504;-83
2022/05/27 02:28:19;;;;;;;3.53;1.47;;;;;;;16.70;nan;101478.88;5052490;28;20457;-83
2022/05/27 02:30:49;;;;;;;6.00;1.10;;;;;;;16.48;nan;101468.06;5054318;28;20450;-83
2022/05/27 02:36:15;;;;;;;3.20;0.80;;;;;;;16.29;nan;101460.66;5045981;28;20483;-84
2022/05/27 02:38:43;;;;;;;6.43;1.07;;;;;;;16.31;nan;101472.34;5028148;28;21066;-84
2022/05/27 02:41:29;;;;;;;1.50;0.93;;;;;;;16.26;nan;101469.38;5065075;28;20501;-84
2022/05/27 02:44:06;;;;;;;7.43;1.00;;;;;;;16.24;nan;101463.22;5036177;28;20501;-83
2022/05/27 02:46:56;;;;;;;5.03;1.10;;;;;;;16.23;nan;101472.53;5047575;28;21001;-84
2022/05/27 02:49:26;;;;;;;4.03;1.20;;;;;;;16.21;nan;101463.63;5054062;28;20820;-84
2022/05/27 02:51:57;;;;;;;6.83;1.33;;;;;;;16.13;nan;101463.88;5053326;28;20454;-83
2022/05/27 02:54:36;;;;;;;13.37;1.03;;;;;;;16.06;nan;101466.63;5054829;28;20451;-84
2022/05/27 02:57:14;;;;;;;12.27;1.20;;;;;;;16.01;nan;101458.13;5054595;28;20478;-84
2022/05/27 02:59:42;;;;;;;4.60;1.00;;;;;;;16.00;nan;101466.59;5038023;28;20521;-83
2022/05/27 03:02:13;;;;;;;9.60;1.37;;;;;;;15.97;nan;101456.03;5036814;28;20459;-83
2022/05/27 03:04:43;;;;;;;4.33;1.43;;;;;;;16.00;nan;101466.59;5054083;28;20443;-83
2022/05/27 03:07:21;;;;;;;6.50;1.43;;;;;;;15.94;nan;101460.06;5034237;28;20447;-83
2022/05/27 03:10:12;;;;;;;5.83;1.20;;;;;;;15.81;nan;101457.28;5049893;28;20458;-83
2022/05/27 03:13:05;;;;;;;6.43;1.90;;;;;;;15.71;nan;101456.84;5042964;28;20454;-83
2022/05/27 03:15:44;;;;;;;6.20;1.10;;;;;;;15.67;nan;101464.69;5049623;28;20466;-84
2022/05/27 03:18:40;;;;;;;5.17;1.10;;;;;;;15.62;nan;101456.19;5034775;28;21008;-83
2022/05/27 03:21:30;;;;;;;2.33;1.17;;;;;;;15.59;nan;101445.56;5047937;28;20459;-83
2022/05/27 03:24:29;;;;;;;6.27;1.13;;;;;;;15.54;nan;101437.09;5047832;28;20447;-83
2022/05/27 03:27:14;;;;;;;5.50;1.37;;;;;;;15.50;nan;101433.03;5019028;28;20946;-83
2022/05/27 03:30:13;;;;;;;4.13;1.00;;;;;;;15.46;nan;101427.09;5033159;28;20949;-83
2022/05/27 03:32:46;;;;;;;5.80;1.40;;;;;;;15.49;nan;101431.34;5040876;28;20515;-84
2022/05/27 03:35:24;;;;;;;7.90;1.20;;;;;;;15.46;nan;101421.59;5053999;28;20615;-83
2022/05/27 03:38:16;;;;;;;7.13;1.57;;;;;;;15.49;nan;101421.19;5034895;28;20481;-84
2022/05/27 03:40:48;;;;;;;8.00;1.23;;;;;;;15.46;nan;101416.06;5018694;28;20447;-84
2022/05/27 03:43:16;;;;;;;4.73;1.13;;;;;;;15.37;nan;101409.09;5044511;28;20454;-83
2022/05/27 03:45:55;;;;;;;6.27;1.53;;;;;;;15.31;nan;101417.31;5027708;28;20455;-83
2022/05/27 03:48:24;;;;;;;5.77;1.00;;;;;;;15.26;nan;101414.34;5049158;28;20646;-83
2022/05/27 03:50:53;;;;;;;11.60;1.37;;;;;;;15.23;nan;101409.25;5036748;28;20528;-83
2022/05/27 03:53:21;;;;;;;4.63;1.30;;;;;;;15.18;nan;101402.47;5033054;28;20473;-83
2022/05/27 03:55:49;;;;;;;4.70;1.00;;;;;;;15.23;nan;101403.72;5065861;28;20872;-83
2022/05/27 03:58:17;;;;;;;4.13;1.30;;;;;;;15.20;nan;101410.53;5062064;28;20555;-83
2022/05/27 04:00:44;;;;;;;4.87;1.40;;;;;;;15.22;nan;101402.88;5052683;28;20454;-83
2022/05/27 04:03:12;;;;;;;4.80;1.30;;;;;;;15.24;nan;101411.78;5075449;28;20467;-84
2022/05/27 04:05:40;;;;;;;2.03;1.50;;;;;;;15.26;nan;101415.19;5052342;28;20980;-83
2022/05/27 04:08:08;;;;;;;3.00;1.33;;;;;;;15.24;nan;101416.44;5068799;28;20507;-83
2022/05/27 04:10:36;;;;;;;4.07;1.30;;;;;;;15.20;nan;101414.09;5052426;28;20439;-83
2022/05/27 04:13:03;;;;;;;4.90;1.33;;;;;;;15.16;nan;101403.75;5052884;28;20447;-83
2022/05/27 04:15:32;;;;;;;13.87;1.67;;;;;;;15.12;nan;101408.81;5068851;28;20453;-83
2022/05/27 04:17:59;;;;;;;46.00;5.10;;;;;;;15.16;nan;101414.75;5030705;28;20998;-84
2022/05/27 04:20:27;;;;;;;30.03;2.30;;;;;;;15.07;nan;101400.31;5048722;28;20949;-83
2022/05/27 04:22:55;;;;;;;27.47;3.60;;;;;;;15.13;nan;101415.16;5048793;28;20455;-83
2022/05/27 04:25:24;;;;;;;5.90;1.13;;;;;;;15.07;nan;101402.22;5065142;28;20949;-83
2022/05/27 04:27:52;;;;;;;4.23;1.07;;;;;;;15.11;nan;101411.75;5064623;28;20478;-83
2022/05/27 04:30:20;;;;;;;6.50;1.60;;;;;;;15.01;nan;101403.88;5065390;28;20451;-84
2022/05/27 04:32:47;;;;;;;4.20;1.23;;;;;;;14.92;nan;101407.88;5051236;28;21041;-83
2022/05/27 04:35:15;;;;;;;7.47;1.70;;;;;;;14.87;nan;101413.16;5052340;28;20841;-84
2022/05/27 04:37:43;;;;;;;7.03;1.40;;;;;;;14.84;nan;101413.56;5038857;28;20487;-83
2022/05/27 04:40:11;;;;;;;7.67;1.30;;;;;;;14.86;nan;101417.81;5051476;28;21003;-84
2022/05/27 04:42:39;;;;;;;4.90;1.07;;;;;;;14.88;nan;101414.84;5051526;28;20454;-84
2022/05/27 04:45:08;;;;;;;2.50;1.10;;;;;;;14.88;nan;101403.84;5054620;28;20463;-84
2022/05/27 04:47:37;;;;;;;8.83;1.20;;;;;;;14.86;nan;101414.22;5067946;28;20454;-83
2022/05/27 04:50:08;;;;;;;11.03;1.53;;;;;;;14.83;nan;101417.38;5017764;28;20465;-84
2022/05/27 04:52:37;;;;;;;5.30;2.10;;;;;;;14.78;nan;101411.66;5052496;28;20470;-84
2022/05/27 04:55:07;;;;;;;7.20;1.20;;;;;;;14.78;nan;101406.16;5009165;28;20804;-83
2022/05/27 04:57:40;;;;;;;8.67;1.27;;;;;;;14.75;nan;101406.56;5038630;28;20835;-83
2022/05/27 05:00:19;;;;;;;8.00;1.33;;;;;;;14.76;nan;101400.00;5047431;28;20806;-83
2022/05/27 05:02:47;;;;;;;9.90;1.83;;;;;;;14.75;nan;101398.31;5036579;28;20499;-84
2022/05/27 05:05:16;;;;;;;6.23;1.83;;;;;;;14.76;nan;101392.59;5051531;28;20477;-83
2022/05/27 05:07:45;;;;;;;4.50;1.87;;;;;;;14.74;nan;101391.09;5051643;28;20465;-82
2022/05/27 05:10:15;;;;;;;10.30;1.80;;;;;;;14.73;nan;101397.66;5051622;28;20450;-83
2022/05/27 05:12:43;;;;;;;8.07;1.47;;;;;;;14.71;nan;101391.50;5034016;28;20828;-84
2022/05/27 05:15:12;;;;;;;28.50;1.90;;;;;;;14.78;nan;101389.63;5047774;28;20508;-83
2022/05/27 05:17:39;;;;;;;12.73;2.03;;;;;;;14.79;nan;101391.34;5064609;28;20548;-83
2022/05/27 05:20:08;;;;;;;5.77;1.50;;;;;;;14.78;nan;101389.63;5034876;28;20451;-83
2022/05/27 05:22:36;;;;;;;6.60;1.37;;;;;;;14.81;nan;101389.22;5051661;28;21498;-83
2022/05/27 05:25:04;;;;;;;5.23;1.43;;;;;;;14.77;nan;101388.78;5035335;28;20454;-83
2022/05/27 05:27:34;;;;;;;7.83;1.57;;;;;;;14.74;nan;101382.84;5049871;28;20454;-84
2022/05/27 05:30:02;;;;;;;12.10;1.83;;;;;;;14.75;nan;101379.03;5051457;28;20447;-83
2022/05/27 05:32:32;;;;;;;2.83;1.33;;;;;;;14.77;nan;101382.44;5020476;28;20510;-84
2022/05/27 05:35:00;;;;;;;4.87;1.50;;;;;;;14.73;nan;101386.66;5038983;28;20447;-83
2022/05/27 05:37:27;;;;;;;11.30;2.07;;;;;;;14.71;nan;101388.75;5047882;28;20472;-83
2022/05/27 05:39:55;;;;;;;7.90;1.47;;;;;;;14.73;nan;101390.25;5047308;28;20479;-84
2022/05/27 05:42:26;;;;;;;6.33;1.67;;;;;;;14.73;nan;101394.91;5067263;28;20453;-84
2022/05/27 05:44:55;;;;;;;24.33;3.00;;;;;;;14.70;nan;101390.66;5049035;28;20455;-83
2022/05/27 05:47:23;;;;;;;8.63;1.50;;;;;;;14.72;nan;101391.31;5031649;28;20934;-84
2022/05/27 05:49:51;;;;;;;5.70;1.80;;;;;;;14.76;nan;101394.50;5047737;28;20451;-84
2022/05/27 05:52:19;;;;;;;16.43;1.90;;;;;;;14.75;nan;101390.03;5047716;28;20455;-83
2022/05/27 05:54:47;;;;;;;15.83;1.60;;;;;;;14.76;nan;101389.84;5047830;28;20443;-83
2022/05/27 05:57:15;;;;;;;4.17;1.10;;;;;;;14.78;nan;101384.13;5047632;28;20474;-84
2022/05/27 05:59:43;;;;;;;14.27;1.90;;;;;;;14.79;nan;101383.09;5063803;28;20459;-84
2022/05/27 06:02:11;;;;;;;5.70;1.40;;;;;;;14.83;nan;101378.84;5065127;28;20829;-84
2022/05/27 06:04:40;;;;;;;5.33;1.70;;;;;;;14.86;nan;101375.69;5033257;28;20447;-83
2022/05/27 06:07:11;;;;;;;4.77;1.53;;;;;;;14.85;nan;101357.47;5051561;28;20443;-84
2022/05/27 06:09:40;;;;;;;19.00;1.70;;;;;;;15.00;nan;101371.94;5033461;28;20458;-84
2022/05/27 06:12:10;;;;;;;9.70;1.33;;;;;;;15.06;nan;101372.97;5035309;28;20443;-84
2022/05/27 06:14:40;;;;;;;13.50;2.30;;;;;;;15.11;nan;101370.47;5036354;28;20451;-84
2022/05/27 06:17:09;;;;;;;16.30;2.27;;;;;;;15.18;nan;101374.94;5072715;28;20462;-84
2022/05/27 06:19:37;;;;;;;9.43;1.20;;;;;;;15.26;nan;101375.78;5054024;28;20458;-83
2022/05/27 06:22:05;;;;;;;10.10;1.77;;;;;;;15.37;nan;101392.56;5046683;28;20956;-84
2022/05/27 06:24:32;;;;;;;16.70;1.80;;;;;;;15.42;nan;101384.50;5054673;28;20450;-82
2022/05/27 06:27:00;;;;;;;5.37;1.30;;;;;;;15.47;nan;101389.38;5036681;28;20500;-84
2022/05/27 06:35:00;;;;;;;13.80;2.10;;;;;;;15.78;nan;101369.47;5040402;28;20794;-84
2022/05/27 06:37:28;;;;;;;6.40;1.60;;;;;;;15.89;nan;101379.88;5038047;28;20509;-84
2022/05/27 06:39:55;;;;;;;3.37;1.07;;;;;;;16.01;nan;101372.66;5037890;28;20470;-83
2022/05/27 06:42:23;;;;;;;9.53;1.30;;;;;;;16.13;nan;101370.94;5038045;28;20459;-83
2022/05/27 06:45:08;;;;;;;6.50;1.40;;;;;;;16.32;nan;101371.13;5040035;28;20803;-84
2022/05/27 06:47:36;;;;;;;7.40;1.10;;;;;;;16.45;nan;101371.91;5071053;28;20465;-84
2022/05/27 06:50:04;;;;;;;6.63;1.33;;;;;;;16.55;nan;101361.25;5037945;28;20450;-84
2022/05/27 06:52:32;;;;;;;11.70;1.60;;;;;;;16.74;nan;101366.97;5037996;28;20455;-83
2022/05/27 06:55:00;;;;;;;5.80;1.10;;;;;;;16.91;nan;101365.41;5037714;28;20486;-84
2022/05/27 06:57:28;;;;;;;14.30;1.30;;;;;;;17.04;nan;101357.03;5053970;28;20474;-84
2022/05/27 06:59:55;;;;;;;5.60;1.40;;;;;;;17.25;nan;101366.91;5036118;28;20459;-84
2022/05/27 07:02:23;;;;;;;8.40;1.07;;;;;;;17.37;nan;101350.44;5053858;28;20441;-84
2022/05/27 07:04:50;;;;;;;4.40;1.33;;;;;;;17.58;nan;101355.59;5053805;28;20446;-84
2022/05/27 07:07:18;;;;;;;8.00;1.50;;;;;;;17.75;nan;101351.22;5053466;28;20462;-85
2022/05/27 07:09:46;;;;;;;46.83;4.13;;;;;;;17.97;nan;101356.34;5070165;28;20446;-84
2022/05/27 07:12:13;;;;;;;31.33;4.20;;;;;;;18.08;nan;101344.53;5053647;28;20447;-85
2022/05/27 07:14:41;;;;;;;15.43;1.60;;;;;;;18.27;nan;101357.31;5053400;28;20458;-84
2022/05/27 07:17:08;;;;;;;10.63;1.60;;;;;;;18.45;nan;101357.31;5069908;28;20442;-85
2022/05/27 07:19:37;;;;;;;8.87;1.70;;;;;;;18.62;nan;101352.88;5053239;28;20455;-85
2022/05/27 07:22:10;;;;;;;9.57;1.60;;;;;;;18.83;nan;101353.47;5020214;28;20458;-85
2022/05/27 07:24:38;;;;;;;3.63;1.00;;;;;;;19.07;nan;101354.38;5037691;28;20446;-85
2022/05/27 07:27:05;;;;;;;4.63;1.03;;;;;;;19.30;nan;101347.00;5037059;28;21021;-85
2022/05/27 07:29:33;;;;;;;4.43;1.00;;;;;;;19.54;nan;101353.50;5036775;28;20459;-84
2022/05/27 07:32:01;;;;;;;4.40;1.03;;;;;;;19.76;nan;101348.22;5036896;28;20446;-84
2022/05/27 07:34:29;;;;;;;1.67;0.70;;;;;;;19.97;nan;101353.19;5020579;28;20458;-85
2022/05/27 07:36:57;;;;;;;8.37;1.37;;;;;;;20.20;nan;101351.50;5020802;28;20813;-85
2022/05/27 07:39:25;;;;;;;5.47;0.90;;;;;;;20.40;nan;101349.19;5036312;28;20490;-85
2022/05/27 07:41:53;;;;;;;3.17;1.00;;;;;;;20.54;nan;101341.44;5036821;28;20809;-85
2022/05/27 07:44:20;;;;;;;3.10;0.60;;;;;;;20.66;nan;101350.56;5053446;28;20454;-86
2022/05/27 07:46:51;;;;;;;2.30;0.70;;;;;;;20.83;nan;101353.41;5020334;28;20816;-83
2022/05/27 07:49:20;;;;;;;9.27;1.37;;;;;;;20.93;nan;101348.94;5052995;28;20955;-85
2022/05/27 07:51:59;;;;;;;3.60;1.20;;;;;;;21.07;nan;101352.25;5023411;28;20449;-85
2022/05/27 07:54:26;;;;;;;1.70;0.87;;;;;;;21.23;nan;101348.69;5020098;28;20453;-85
2022/05/27 07:56:54;;;;;;;7.97;1.20;;;;;;;21.36;nan;101353.09;5052743;28;20457;-86
2022/05/27 07:59:21;;;;;;;4.10;1.27;;;;;;;21.46;nan;101352.44;5069105;28;20487;-85
2022/05/27 08:01:49;;;;;;;3.73;1.20;;;;;;;21.62;nan;101355.22;5052705;28;20454;-84
2022/05/27 08:04:16;;;;;;;4.03;0.97;;;;;;;21.76;nan;101350.16;5068948;28;20451;-84
2022/05/27 08:06:45;;;;;;;3.40;1.00;;;;;;;21.89;nan;101351.78;5052444;28;20454;-84
2022/05/27 08:09:14;;;;;;;5.60;1.20;;;;;;;21.99;nan;101346.34;5068765;28;20451;-84
2022/05/27 08:11:44;;;;;;;4.80;1.07;;;;;;;22.20;nan;101358.69;5068742;28;20972;-87
2022/05/27 08:14:11;;;;;;;11.23;1.30;;;;;;;22.33;nan;101353.56;5052511;28;20454;-83
2022/05/27 08:16:41;;;;;;;3.83;0.83;;;;;;;22.49;nan;101349.09;5069020;28;20461;-90
2022/05/27 08:19:09;;;;;;;7.33;1.10;;;;;;;22.63;nan;101339.22;5036301;28;21073;-83
2022/05/27 08:21:38;;;;;;;4.47;1.17;;;;;;;22.67;nan;101354.34;5068879;28;20446;-84
2022/05/27 08:24:07;;;;;;;4.13;0.93;;;;;;;22.73;nan;101347.69;5053606;28;20446;-84
2022/05/27 08:26:37;;;;;;;6.63;1.93;;;;;;;22.83;nan;101351.75;5084874;28;20439;-84
2022/05/27 08:29:06;;;;;;;9.73;1.37;;;;;;;22.96;nan;101363.34;5068539;28;20438;-84
2022/05/27 08:31:34;;;;;;;5.13;0.93;;;;;;;22.99;nan;101334.94;5052132;28;20815;-84
2022/05/27 08:39:37;;;;;;;22.77;1.30;;;;;;;23.43;nan;101352.44;5065993;28;20486;-84
2022/05/27 08:42:26;;;;;;;5.93;1.37;;;;;;;23.60;nan;101351.50;5068522;28;20447;-84
2022/05/27 08:45:14;;;;;;;6.43;1.30;;;;;;;23.72;nan;101340.97;5053242;28;20540;-83
2022/05/27 08:48:01;;;;;;;9.00;1.07;;;;;;;23.84;nan;101338.84;5050496;28;20447;-84
2022/05/27 08:50:47;;;;;;;6.63;1.17;;;;;;;23.91;nan;101327.44;5068230;28;20967;-83
2022/05/27 08:53:15;;;;;;;9.87;1.43;;;;;;;24.05;nan;101337.88;5051821;28;20445;-83
2022/05/27 09:01:29;;;;;;;12.83;1.60;;;;;;;24.33;nan;101344.22;5080170;28;20805;-83
2022/05/27 09:04:08;;;;;;;6.83;1.20;;;;;;;24.44;nan;101343.16;5067991;28;20434;-84
2022/05/27 09:06:40;;;;;;;15.03;1.73;;;;;;;24.54;nan;101340.44;5084865;28;20446;-83
2022/05/27 09:09:21;;;;;;;6.43;1.30;;;;;;;24.63;nan;101349.97;5068254;28;20454;-84
2022/05/27 09:12:08;;;;;;;4.40;1.10;;;;;;;24.72;nan;101342.75;5066800;28;20450;-83
2022/05/27 09:14:36;;;;;;;8.67;1.50;;;;;;;24.84;nan;101334.09;5084760;28;21007;-84
2022/05/27 09:17:06;;;;;;;15.33;1.30;;;;;;;25.03;nan;101326.06;5051429;28;20455;-84
2022/05/27 09:20:17;;;;;;;5.00;1.70;;;;;;;25.17;nan;101321.66;5066976;28;20489;-84
2022/05/27 09:23:11;;;;;;;5.43;1.20;;;;;;;25.37;nan;101327.28;5049513;28;20446;-83
2022/05/27 09:26:03;;;;;;;9.77;1.53;;;;;;;25.45;nan;101326.72;5067329;28;20454;-84
2022/05/27 09:28:52;;;;;;;55.03;3.53;;;;;;;25.59;nan;101329.81;5051621;28;20443;-83
2022/05/27 09:31:42;;;;;;;16.27;1.33;;;;;;;25.64;nan;101326.19;5052795;28;20457;-84
2022/05/27 09:34:11;;;;;;;5.33;1.10;;;;;;;25.73;nan;101327.31;5067626;28;20447;-84
2022/05/27 09:36:45;;;;;;;5.20;1.50;;;;;;;25.73;nan;101338.53;5051419;28;20971;-84
2022/05/27 09:39:14;;;;;;;3.33;1.17;;;;;;;25.82;nan;101322.81;5067511;28;20512;-84
2022/05/27 09:42:00;;;;;;;12.57;1.47;;;;;;;25.97;nan;101341.59;5051328;28;20451;-84
2022/05/27 09:44:40;;;;;;;10.70;1.40;;;;;;;26.10;nan;101339.03;5051665;28;20818;-84
2022/05/27 09:47:07;;;;;;;15.73;1.40;;;;;;;26.13;nan;101338.47;5055384;28;20439;-84
2022/05/27 09:49:35;;;;;;;16.33;1.37;;;;;;;26.36;nan;101342.63;5055305;28;20460;-84
2022/05/27 09:52:05;;;;;;;7.90;1.53;;;;;;;26.54;nan;101346.81;5055216;28;20469;-83
2022/05/27 09:54:34;;;;;;;4.70;1.07;;;;;;;26.66;nan;101352.94;5071367;28;20455;-83
2022/05/27 09:57:10;;;;;;;2.70;0.80;;;;;;;26.76;nan;101347.25;5056317;28;20450;-83
2022/05/27 09:59:39;;;;;;;6.00;1.07;;;;;;;26.91;nan;101351.16;5055405;28;20481;-84
2022/05/27 10:02:12;;;;;;;4.10;1.10;;;;;;;27.03;nan;101354.47;5088146;28;20945;-83
2022/05/27 10:05:17;;;;;;;22.07;1.40;;;;;;;27.05;nan;101341.00;5056139;28;20852;-84
2022/05/27 10:07:57;;;;;;;12.07;1.13;;;;;;;27.16;nan;101348.22;5034851;28;20445;-83
2022/05/27 10:10:34;;;;;;;11.90;1.33;;;;;;;27.22;nan;101349.88;5071021;28;20434;-84
2022/05/27 10:13:22;;;;;;;6.43;1.17;;;;;;;27.41;nan;101350.84;5054266;28;20807;-84
2022/05/27 10:15:50;;;;;;;8.77;1.20;;;;;;;27.59;nan;101340.09;5070889;28;20450;-84
2022/05/27 10:18:25;;;;;;;8.03;1.50;;;;;;;27.69;nan;101340.84;5054834;28;20454;-84
2022/05/27 10:21:05;;;;;;;6.43;1.50;;;;;;;27.83;nan;101335.38;5065246;28;20454;-84
2022/05/27 10:23:35;;;;;;;16.23;1.80;;;;;;;27.99;nan;101347.31;5087543;28;20454;-84
2022/05/27 10:26:26;;;;;;;16.60;1.30;;;;;;;28.14;nan;101348.00;5054649;28;20545;-84
2022/05/27 10:28:59;;;;;;;8.03;0.90;;;;;;;28.21;nan;101339.25;5087712;28;20526;-84
2022/05/27 10:31:27;;;;;;;7.03;1.60;;;;;;;28.31;nan;101341.09;5070826;28;20451;-84
2022/05/27 10:33:55;;;;;;;9.23;1.40;;;;;;;28.30;nan;101339.44;5070767;28;20836;-83
2022/05/27 10:36:55;;;;;;;13.17;1.03;;;;;;;28.32;nan;101338.00;5070878;28;20841;-84
2022/05/27 10:39:28;;;;;;;7.63;1.20;;;;;;;28.47;nan;101334.19;5082100;28;20999;-84
2022/05/27 10:42:22;;;;;;;5.70;1.20;;;;;;;28.61;nan;101346.41;5087615;28;20454;-84
2022/05/27 10:45:15;;;;;;;9.37;2.20;;;;;;;28.75;nan;101347.34;5055581;28;20446;-83
2022/05/27 10:48:04;;;;;;;11.13;1.33;;;;;;;28.88;nan;101349.44;5052008;28;20454;-84
2022/05/27 10:51:02;;;;;;;11.30;2.00;;;;;;;29.03;nan;101339.13;5055412;28;20454;-84
2022/05/27 10:53:56;;;;;;;3.53;1.10;;;;;;;29.06;nan;101344.97;5055524;28;20442;-84
2022/05/27 10:56:33;;;;;;;5.97;0.83;;;;;;;29.15;nan;101345.13;5053059;28;20457;-83
2022/05/27 11:02:46;;;;;;;4.83;1.50;;;;;;;29.22;nan;101339.97;5053147;28;20933;-84
2022/05/27 11:05:38;;;;;;;7.80;1.20;;;;;;;29.32;nan;101345.44;4955135;29;20448;-83
2022/05/27 11:08:21;;;;;;;12.67;1.90;;;;;;;29.48;nan;101346.06;4954944;28;20451;-84
2022/05/27 11:11:01;;;;;;;10.10;1.10;;;;;;;29.63;nan;101333.72;4954817;28;20458;-83
2022/05/27 11:16:56;;;;;;;7.53;1.70;;;;;;;29.86;nan;101352.47;4954823;29;20457;-84
2022/05/27 11:19:50;;;;;;;11.10;1.80;;;;;;;29.87;nan;101345.69;4897364;29;20493;-84
2022/05/27 11:22:36;;;;;;;3.50;0.93;;;;;;;29.93;nan;101350.09;4887153;28;20462;-84
2022/05/27 11:25:09;;;;;;;2.90;0.70;;;;;;;29.80;nan;101356.53;4944258;28;20944;-85
2022/05/27 11:27:44;;;;;;;14.03;1.30;;;;;;;29.81;nan;101341.31;4942180;28;20465;-84
2022/05/27 11:30:41;;;;;;;12.00;1.53;;;;;;;29.97;nan;101351.16;4956040;28;20448;-84
2022/05/27 11:33:15;;;;;;;4.03;0.90;;;;;;;30.10;nan;101350.38;4999865;28;20461;-84
2022/05/27 11:36:09;;;;;;;7.83;1.10;;;;;;;29.95;nan;101347.81;4993190;28;20448;-84
2022/05/27 11:38:53;;;;;;;8.57;1.13;;;;;;;29.90;nan;101356.34;4977766;28;20462;-84
2022/05/27 11:41:25;;;;;;;11.90;1.37;;;;;;;30.02;nan;101341.81;5009015;28;20445;-84
2022/05/27 11:43:59;;;;;;;5.13;1.07;;;;;;;30.19;nan;101351.34;5008898;28;20823;-84
2022/05/27 11:46:56;;;;;;;7.27;1.10;;;;;;;30.28;nan;101350.63;5008561;28;20453;-84
2022/05/27 11:49:30;;;;;;;6.50;1.27;;;;;;;30.48;nan;101341.75;4990472;28;20445;-84
2022/05/27 11:52:02;;;;;;;11.33;1.57;;;;;;;30.49;nan;101352.72;5009016;28;20452;-84
2022/05/27 11:54:51;;;;;;;7.40;1.47;;;;;;;30.52;nan;101348.44;5009047;28;20461;-84
2022/05/27 11:57:31;;;;;;;5.80;1.00;;;;;;;30.51;nan;101341.97;5073816;28;20453;-83
2022/05/27 12:00:18;;;;;;;3.60;0.90;;;;;;;30.55;nan;101345.88;5084306;28;20492;-84
2022/05/27 12:02:52;;;;;;;7.30;1.17;;;;;;;30.49;nan;101332.13;5069076;28;20450;-85
2022/05/27 12:05:25;;;;;;;3.77;0.70;;;;;;;30.41;nan;101335.69;5053881;28;20859;-84
2022/05/27 12:07:53;;;;;;;10.87;1.30;;;;;;;30.49;nan;101332.97;5068326;28;20457;-83
2022/05/27 12:10:44;;;;;;;6.43;1.27;;;;;;;30.63;nan;101335.81;5052554;28;20457;-84
2022/05/27 12:13:15;;;;;;;5.37;0.80;;;;;;;30.56;nan;101329.78;5085231;28;20451;-84
2022/05/27 12:16:16;;;;;;;2.90;1.13;;;;;;;30.55;nan;101330.94;5053805;28;20457;-84
2022/05/27 12:18:57;;;;;;;7.53;1.20;;;;;;;30.58;nan;101330.31;5060502;28;20450;-84
2022/05/27 12:21:29;;;;;;;19.77;1.73;;;;;;;30.75;nan;101326.84;5065390;28;20466;-85
2022/05/27 12:24:12;;;;;;;6.23;1.40;;;;;;;30.85;nan;101333.09;5033009;28;20930;-84
2022/05/27 12:26:40;;;;;;;32.57;1.73;;;;;;;30.89;nan;101327.66;5064509;28;20462;-84
2022/05/27 12:29:09;;;;;;;8.70;0.93;;;;;;;30.98;nan;101324.94;5032293;28;20443;-84
2022/05/27 12:31:37;;;;;;;9.53;1.27;;;;;;;30.87;nan;101327.97;5048628;28;20462;-84
2022/05/27 12:34:26;;;;;;;5.53;1.63;;;;;;;30.77;nan;101324.53;5032282;28;20926;-84
2022/05/27 12:36:54;;;;;;;39.97;3.47;;;;;;;30.62;nan;101320.03;5032361;28;20473;-84
2022/05/27 12:39:23;;;;;;;17.03;1.60;;;;;;;30.60;nan;101316.69;5048357;28;20498;-84
2022/05/27 12:42:06;;;;;;;5.13;1.10;;;;;;;30.64;nan;101317.72;5032323;28;20447;-84